sensor_id;sensor_type;location;lat;lon;timestamp;P1;durP1;ratioP1;P2;durP2;ratioP2
53907;SDS011;40469;47.998;7.794;2022-11-12T00:00:23;19.48;;;8.05;;
53907;SDS011;40469;47.998;7.794;2022-11-12T00:02:49;10.88;;;8.30;;
53907;SDS011;40469;47.998;7.794;2022-11-12T00:05:14;12.38;;;7.97;;
53907;SDS011;40469;47.998;7.794;2022-11-12T00:07:40;13.20;;;8.02;;
53907;SDS011;40469;47.998;7.794;2022-11-12T00:10:05;11.45;;;8.02;;
53907;SDS011;40469;47.998;7.794;2022-11-12T00:12:31;12.75;;;8.63;;
53907;SDS011;40469;47.998;7.794;2022-11-12T00:14:56;10.70;;;8.00;;
53907;SDS011;40469;47.998;7.794;2022-11-12T00:17:22;11.75;;;8.32;;
53907;SDS011;40469;47.998;7.794;2022-11-12T00:19:47;13.57;;;8.07;;
53907;SDS011;40469;47.998;7.794;2022-11-12T00:22:13;11.18;;;8.23;;
53907;SDS011;40469;47.998;7.794;2022-11-12T00:24:38;11.93;;;8.57;;
53907;SDS011;40469;47.998;7.794;2022-11-12T00:27:03;12.02;;;8.30;;
53907;SDS011;40469;47.998;7.794;2022-11-12T00:29:29;11.07;;;7.93;;
53907;SDS011;40469;47.998;7.794;2022-11-12T00:31:54;10.63;;;7.82;;
53907;SDS011;40469;47.998;7.794;2022-11-12T00:34:20;10.50;;;7.70;;
53907;SDS011;40469;47.998;7.794;2022-11-12T00:36:45;10.85;;;8.07;;
53907;SDS011;40469;47.998;7.794;2022-11-12T00:39:10;12.45;;;8.77;;
53907;SDS011;40469;47.998;7.794;2022-11-12T00:41:36;17.88;;;9.27;;
53907;SDS011;40469;47.998;7.794;2022-11-12T00:44:01;14.77;;;9.23;;
53907;SDS011;40469;47.998;7.794;2022-11-12T00:46:26;12.02;;;8.90;;
53907;SDS011;40469;47.998;7.794;2022-11-12T00:48:51;13.43;;;8.77;;
53907;SDS011;40469;47.998;7.794;2022-11-12T00:51:17;15.95;;;8.40;;
53907;SDS011;40469;47.998;7.794;2022-11-12T00:53:42;31.63;;;8.40;;
53907;SDS011;40469;47.998;7.794;2022-11-12T00:56:12;19.30;;;10.05;;
53907;SDS011;40469;47.998;7.794;2022-11-12T00:58:37;20.67;;;9.60;;
53907;SDS011;40469;47.998;7.794;2022-11-12T01:01:04;14.93;;;8.63;;
53907;SDS011;40469;47.998;7.794;2022-11-12T01:03:35;12.85;;;7.85;;
53907;SDS011;40469;47.998;7.794;2022-11-12T01:06:05;14.65;;;7.70;;
53907;SDS011;40469;47.998;7.794;2022-11-12T01:08:32;14.50;;;8.13;;
53907;SDS011;40469;47.998;7.794;2022-11-12T01:11:05;14.52;;;7.80;;
53907;SDS011;40469;47.998;7.794;2022-11-12T01:13:31;17.75;;;7.43;;
53907;SDS011;40469;47.998;7.794;2022-11-12T01:15:57;25.75;;;8.90;;
53907;SDS011;40469;47.998;7.794;2022-11-12T01:18:22;15.27;;;8.50;;
53907;SDS011;40469;47.998;7.794;2022-11-12T01:20:48;12.02;;;8.27;;
53907;SDS011;40469;47.998;7.794;2022-11-12T01:23:13;37.03;;;8.82;;
53907;SDS011;40469;47.998;7.794;2022-11-12T01:25:38;29.08;;;8.85;;
53907;SDS011;40469;47.998;7.794;2022-11-12T01:28:04;35.80;;;9.57;;
53907;SDS011;40469;47.998;7.794;2022-11-12T01:30:29;17.25;;;8.50;;
53907;SDS011;40469;47.998;7.794;2022-11-12T01:32:55;17.77;;;9.05;;
53907;SDS011;40469;47.998;7.794;2022-11-12T01:35:20;29.55;;;10.70;;
53907;SDS011;40469;47.998;7.794;2022-11-12T01:37:46;19.50;;;9.73;;
53907;SDS011;40469;47.998;7.794;2022-11-12T01:40:11;17.73;;;10.05;;
53907;SDS011;40469;47.998;7.794;2022-11-12T01:42:37;33.65;;;9.45;;
53907;SDS011;40469;47.998;7.794;2022-11-12T01:45:09;17.52;;;9.40;;
53907;SDS011;40469;47.998;7.794;2022-11-12T01:47:39;15.48;;;9.77;;
53907;SDS011;40469;47.998;7.794;2022-11-12T01:50:12;17.25;;;10.10;;
53907;SDS011;40469;47.998;7.794;2022-11-12T01:52:42;13.15;;;9.20;;
53907;SDS011;40469;47.998;7.794;2022-11-12T01:55:12;13.05;;;9.15;;
53907;SDS011;40469;47.998;7.794;2022-11-12T01:57:44;13.63;;;8.55;;
53907;SDS011;40469;47.998;7.794;2022-11-12T02:00:15;11.32;;;8.68;;
53907;SDS011;40469;47.998;7.794;2022-11-12T02:02:42;11.43;;;8.05;;
53907;SDS011;40469;47.998;7.794;2022-11-12T02:05:10;15.25;;;9.35;;
53907;SDS011;40469;47.998;7.794;2022-11-12T02:07:38;12.65;;;8.32;;
53907;SDS011;40469;47.998;7.794;2022-11-12T02:10:06;10.80;;;7.93;;
53907;SDS011;40469;47.998;7.794;2022-11-12T02:12:33;11.65;;;7.97;;
53907;SDS011;40469;47.998;7.794;2022-11-12T02:15:17;13.10;;;7.68;;
53907;SDS011;40469;47.998;7.794;2022-11-12T02:17:43;12.27;;;8.13;;
53907;SDS011;40469;47.998;7.794;2022-11-12T02:20:11;10.73;;;7.32;;
53907;SDS011;40469;47.998;7.794;2022-11-12T02:22:37;8.77;;;6.13;;
53907;SDS011;40469;47.998;7.794;2022-11-12T02:25:03;10.55;;;7.65;;
53907;SDS011;40469;47.998;7.794;2022-11-12T02:27:29;12.55;;;6.90;;
53907;SDS011;40469;47.998;7.794;2022-11-12T02:29:54;12.38;;;7.35;;
53907;SDS011;40469;47.998;7.794;2022-11-12T02:32:20;10.77;;;7.35;;
53907;SDS011;40469;47.998;7.794;2022-11-12T02:34:45;9.60;;;7.35;;
53907;SDS011;40469;47.998;7.794;2022-11-12T02:37:10;11.15;;;7.07;;
53907;SDS011;40469;47.998;7.794;2022-11-12T02:39:36;10.48;;;6.55;;
53907;SDS011;40469;47.998;7.794;2022-11-12T02:42:01;10.27;;;6.50;;
53907;SDS011;40469;47.998;7.794;2022-11-12T02:44:27;8.18;;;6.43;;
53907;SDS011;40469;47.998;7.794;2022-11-12T02:46:53;12.73;;;6.90;;
53907;SDS011;40469;47.998;7.794;2022-11-12T02:49:19;11.35;;;7.28;;
53907;SDS011;40469;47.998;7.794;2022-11-12T02:51:44;8.80;;;7.00;;
53907;SDS011;40469;47.998;7.794;2022-11-12T02:54:09;12.68;;;7.22;;
53907;SDS011;40469;47.998;7.794;2022-11-12T02:56:35;11.43;;;7.35;;
53907;SDS011;40469;47.998;7.794;2022-11-12T02:59:00;11.63;;;7.40;;
53907;SDS011;40469;47.998;7.794;2022-11-12T03:01:25;14.35;;;6.93;;
53907;SDS011;40469;47.998;7.794;2022-11-12T03:03:51;12.70;;;7.32;;
53907;SDS011;40469;47.998;7.794;2022-11-12T03:06:16;12.70;;;7.38;;
53907;SDS011;40469;47.998;7.794;2022-11-12T03:08:42;14.98;;;7.28;;
53907;SDS011;40469;47.998;7.794;2022-11-12T03:11:08;17.05;;;8.07;;
53907;SDS011;40469;47.998;7.794;2022-11-12T03:13:36;14.13;;;7.70;;
53907;SDS011;40469;47.998;7.794;2022-11-12T03:16:02;13.30;;;7.80;;
53907;SDS011;40469;47.998;7.794;2022-11-12T03:18:28;17.77;;;8.45;;
53907;SDS011;40469;47.998;7.794;2022-11-12T03:20:53;13.80;;;7.80;;
53907;SDS011;40469;47.998;7.794;2022-11-12T03:23:18;15.55;;;7.32;;
53907;SDS011;40469;47.998;7.794;2022-11-12T03:25:44;12.38;;;8.27;;
53907;SDS011;40469;47.998;7.794;2022-11-12T03:28:10;13.77;;;7.90;;
53907;SDS011;40469;47.998;7.794;2022-11-12T03:30:38;16.90;;;8.90;;
53907;SDS011;40469;47.998;7.794;2022-11-12T03:33:05;16.25;;;8.70;;
53907;SDS011;40469;47.998;7.794;2022-11-12T03:35:32;17.60;;;9.07;;
53907;SDS011;40469;47.998;7.794;2022-11-12T03:37:58;14.30;;;8.07;;
53907;SDS011;40469;47.998;7.794;2022-11-12T03:40:24;12.82;;;7.95;;
53907;SDS011;40469;47.998;7.794;2022-11-12T03:42:50;23.85;;;9.13;;
53907;SDS011;40469;47.998;7.794;2022-11-12T03:45:17;16.90;;;8.73;;
53907;SDS011;40469;47.998;7.794;2022-11-12T03:47:44;21.17;;;8.75;;
53907;SDS011;40469;47.998;7.794;2022-11-12T03:50:12;15.73;;;8.32;;
53907;SDS011;40469;47.998;7.794;2022-11-12T03:52:38;17.30;;;8.60;;
53907;SDS011;40469;47.998;7.794;2022-11-12T03:55:07;19.65;;;7.82;;
53907;SDS011;40469;47.998;7.794;2022-11-12T03:57:33;24.50;;;8.07;;
53907;SDS011;40469;47.998;7.794;2022-11-12T03:59:58;17.70;;;7.68;;
53907;SDS011;40469;47.998;7.794;2022-11-12T04:02:23;12.20;;;6.35;;
53907;SDS011;40469;47.998;7.794;2022-11-12T04:04:50;11.43;;;6.57;;
53907;SDS011;40469;47.998;7.794;2022-11-12T04:07:35;14.75;;;7.07;;
53907;SDS011;40469;47.998;7.794;2022-11-12T04:10:19;10.00;;;6.75;;
53907;SDS011;40469;47.998;7.794;2022-11-12T04:12:45;8.85;;;6.07;;
53907;SDS011;40469;47.998;7.794;2022-11-12T04:15:28;14.65;;;7.03;;
53907;SDS011;40469;47.998;7.794;2022-11-12T04:17:54;13.00;;;7.35;;
53907;SDS011;40469;47.998;7.794;2022-11-12T04:20:38;11.23;;;6.80;;
53907;SDS011;40469;47.998;7.794;2022-11-12T04:23:22;13.55;;;7.43;;
53907;SDS011;40469;47.998;7.794;2022-11-12T04:25:47;11.40;;;7.03;;
53907;SDS011;40469;47.998;7.794;2022-11-12T04:28:31;12.57;;;6.43;;
53907;SDS011;40469;47.998;7.794;2022-11-12T04:30:56;10.60;;;6.63;;
53907;SDS011;40469;47.998;7.794;2022-11-12T04:33:22;11.27;;;5.85;;
53907;SDS011;40469;47.998;7.794;2022-11-12T04:35:47;12.48;;;6.25;;
53907;SDS011;40469;47.998;7.794;2022-11-12T04:38:12;10.48;;;6.15;;
53907;SDS011;40469;47.998;7.794;2022-11-12T04:40:38;13.07;;;6.43;;
53907;SDS011;40469;47.998;7.794;2022-11-12T04:43:22;8.40;;;5.63;;
53907;SDS011;40469;47.998;7.794;2022-11-12T04:46:06;14.77;;;6.20;;
53907;SDS011;40469;47.998;7.794;2022-11-12T04:48:31;10.68;;;5.85;;
53907;SDS011;40469;47.998;7.794;2022-11-12T04:51:00;12.55;;;5.53;;
53907;SDS011;40469;47.998;7.794;2022-11-12T04:53:28;12.70;;;6.75;;
53907;SDS011;40469;47.998;7.794;2022-11-12T04:55:55;16.15;;;6.50;;
53907;SDS011;40469;47.998;7.794;2022-11-12T04:58:22;23.88;;;6.72;;
53907;SDS011;40469;47.998;7.794;2022-11-12T05:00:48;15.77;;;6.82;;
53907;SDS011;40469;47.998;7.794;2022-11-12T05:03:14;11.55;;;6.55;;
53907;SDS011;40469;47.998;7.794;2022-11-12T05:05:40;26.48;;;6.78;;
53907;SDS011;40469;47.998;7.794;2022-11-12T05:08:05;17.88;;;6.30;;
53907;SDS011;40469;47.998;7.794;2022-11-12T05:10:31;13.27;;;6.63;;
53907;SDS011;40469;47.998;7.794;2022-11-12T05:12:56;14.45;;;6.47;;
53907;SDS011;40469;47.998;7.794;2022-11-12T05:15:22;18.90;;;7.07;;
53907;SDS011;40469;47.998;7.794;2022-11-12T05:17:48;17.17;;;6.55;;
53907;SDS011;40469;47.998;7.794;2022-11-12T05:20:14;14.40;;;6.45;;
53907;SDS011;40469;47.998;7.794;2022-11-12T05:22:40;18.13;;;6.60;;
53907;SDS011;40469;47.998;7.794;2022-11-12T05:25:05;12.63;;;6.75;;
53907;SDS011;40469;47.998;7.794;2022-11-12T05:27:31;10.60;;;6.55;;
53907;SDS011;40469;47.998;7.794;2022-11-12T05:30:00;11.65;;;7.15;;
53907;SDS011;40469;47.998;7.794;2022-11-12T05:32:26;12.05;;;7.25;;
53907;SDS011;40469;47.998;7.794;2022-11-12T05:34:52;13.20;;;6.93;;
53907;SDS011;40469;47.998;7.794;2022-11-12T05:39:45;10.88;;;7.00;;
53907;SDS011;40469;47.998;7.794;2022-11-12T05:42:10;12.35;;;6.55;;
53907;SDS011;40469;47.998;7.794;2022-11-12T05:44:36;10.82;;;6.35;;
53907;SDS011;40469;47.998;7.794;2022-11-12T05:47:01;10.70;;;6.28;;
53907;SDS011;40469;47.998;7.794;2022-11-12T05:49:27;8.93;;;6.53;;
53907;SDS011;40469;47.998;7.794;2022-11-12T05:51:52;13.40;;;6.82;;
53907;SDS011;40469;47.998;7.794;2022-11-12T05:54:18;10.30;;;6.53;;
53907;SDS011;40469;47.998;7.794;2022-11-12T05:56:43;13.40;;;6.88;;
53907;SDS011;40469;47.998;7.794;2022-11-12T05:59:09;11.40;;;6.88;;
53907;SDS011;40469;47.998;7.794;2022-11-12T06:01:36;11.20;;;6.85;;
53907;SDS011;40469;47.998;7.794;2022-11-12T06:04:12;10.27;;;6.50;;
53907;SDS011;40469;47.998;7.794;2022-11-12T06:06:38;11.85;;;6.45;;
53907;SDS011;40469;47.998;7.794;2022-11-12T06:09:08;13.23;;;7.82;;
53907;SDS011;40469;47.998;7.794;2022-11-12T06:11:34;11.02;;;6.57;;
53907;SDS011;40469;47.998;7.794;2022-11-12T06:14:00;10.35;;;6.57;;
53907;SDS011;40469;47.998;7.794;2022-11-12T06:16:26;13.45;;;7.38;;
53907;SDS011;40469;47.998;7.794;2022-11-12T06:18:52;14.52;;;6.93;;
53907;SDS011;40469;47.998;7.794;2022-11-12T06:21:18;18.50;;;8.60;;
53907;SDS011;40469;47.998;7.794;2022-11-12T06:23:43;26.52;;;9.02;;
53907;SDS011;40469;47.998;7.794;2022-11-12T06:26:09;17.85;;;8.15;;
53907;SDS011;40469;47.998;7.794;2022-11-12T06:28:35;15.70;;;7.80;;
53907;SDS011;40469;47.998;7.794;2022-11-12T06:31:00;18.35;;;8.15;;
53907;SDS011;40469;47.998;7.794;2022-11-12T06:33:25;20.63;;;8.68;;
53907;SDS011;40469;47.998;7.794;2022-11-12T06:36:00;17.70;;;8.57;;
53907;SDS011;40469;47.998;7.794;2022-11-12T06:38:28;14.93;;;7.75;;
53907;SDS011;40469;47.998;7.794;2022-11-12T06:40:54;16.60;;;7.72;;
53907;SDS011;40469;47.998;7.794;2022-11-12T06:43:19;15.80;;;7.15;;
53907;SDS011;40469;47.998;7.794;2022-11-12T06:45:45;15.60;;;7.22;;
53907;SDS011;40469;47.998;7.794;2022-11-12T06:48:10;17.23;;;6.13;;
53907;SDS011;40469;47.998;7.794;2022-11-12T06:50:35;20.15;;;7.75;;
53907;SDS011;40469;47.998;7.794;2022-11-12T06:53:01;13.75;;;6.22;;
53907;SDS011;40469;47.998;7.794;2022-11-12T06:55:26;14.73;;;6.45;;
53907;SDS011;40469;47.998;7.794;2022-11-12T06:57:51;17.33;;;6.63;;
53907;SDS011;40469;47.998;7.794;2022-11-12T07:00:18;20.15;;;6.20;;
53907;SDS011;40469;47.998;7.794;2022-11-12T07:02:43;17.35;;;6.45;;
53907;SDS011;40469;47.998;7.794;2022-11-12T07:05:09;17.42;;;7.13;;
53907;SDS011;40469;47.998;7.794;2022-11-12T07:07:34;19.60;;;8.27;;
53907;SDS011;40469;47.998;7.794;2022-11-12T07:09:59;21.38;;;7.68;;
53907;SDS011;40469;47.998;7.794;2022-11-12T07:12:25;15.80;;;7.25;;
53907;SDS011;40469;47.998;7.794;2022-11-12T07:14:50;18.88;;;7.45;;
53907;SDS011;40469;47.998;7.794;2022-11-12T07:17:16;20.33;;;8.02;;
53907;SDS011;40469;47.998;7.794;2022-11-12T07:19:41;16.50;;;6.53;;
53907;SDS011;40469;47.998;7.794;2022-11-12T07:22:07;17.33;;;7.60;;
53907;SDS011;40469;47.998;7.794;2022-11-12T07:24:32;16.33;;;7.20;;
53907;SDS011;40469;47.998;7.794;2022-11-12T07:26:57;22.45;;;8.23;;
53907;SDS011;40469;47.998;7.794;2022-11-12T07:29:23;17.33;;;7.43;;
53907;SDS011;40469;47.998;7.794;2022-11-12T07:31:48;15.73;;;7.85;;
53907;SDS011;40469;47.998;7.794;2022-11-12T07:34:13;11.15;;;7.20;;
53907;SDS011;40469;47.998;7.794;2022-11-12T07:36:39;16.23;;;7.43;;
53907;SDS011;40469;47.998;7.794;2022-11-12T07:39:04;12.38;;;7.65;;
53907;SDS011;40469;47.998;7.794;2022-11-12T07:41:29;22.35;;;8.18;;
53907;SDS011;40469;47.998;7.794;2022-11-12T07:43:55;16.98;;;7.03;;
53907;SDS011;40469;47.998;7.794;2022-11-12T07:46:21;19.02;;;7.90;;
53907;SDS011;40469;47.998;7.794;2022-11-12T07:48:49;17.60;;;7.90;;
53907;SDS011;40469;47.998;7.794;2022-11-12T07:51:16;19.27;;;7.15;;
53907;SDS011;40469;47.998;7.794;2022-11-12T07:53:43;18.52;;;8.10;;
53907;SDS011;40469;47.998;7.794;2022-11-12T07:56:13;18.98;;;8.48;;
53907;SDS011;40469;47.998;7.794;2022-11-12T07:58:40;18.58;;;8.23;;
53907;SDS011;40469;47.998;7.794;2022-11-12T08:01:07;16.58;;;7.35;;
53907;SDS011;40469;47.998;7.794;2022-11-12T08:03:47;19.42;;;7.93;;
53907;SDS011;40469;47.998;7.794;2022-11-12T08:06:13;15.73;;;8.35;;
53907;SDS011;40469;47.998;7.794;2022-11-12T08:08:38;14.13;;;7.93;;
53907;SDS011;40469;47.998;7.794;2022-11-12T08:11:03;19.00;;;8.05;;
53907;SDS011;40469;47.998;7.794;2022-11-12T08:13:29;22.02;;;8.15;;
53907;SDS011;40469;47.998;7.794;2022-11-12T08:15:56;16.60;;;7.97;;
53907;SDS011;40469;47.998;7.794;2022-11-12T08:18:22;17.95;;;7.75;;
53907;SDS011;40469;47.998;7.794;2022-11-12T08:20:48;13.77;;;7.90;;
53907;SDS011;40469;47.998;7.794;2022-11-12T08:23:13;21.25;;;8.63;;
53907;SDS011;40469;47.998;7.794;2022-11-12T08:25:38;17.45;;;8.48;;
53907;SDS011;40469;47.998;7.794;2022-11-12T08:28:04;21.63;;;8.35;;
53907;SDS011;40469;47.998;7.794;2022-11-12T08:30:29;15.85;;;8.10;;
53907;SDS011;40469;47.998;7.794;2022-11-12T08:33:04;16.40;;;7.30;;
53907;SDS011;40469;47.998;7.794;2022-11-12T08:35:32;12.90;;;7.55;;
53907;SDS011;40469;47.998;7.794;2022-11-12T08:37:58;13.52;;;7.03;;
53907;SDS011;40469;47.998;7.794;2022-11-12T08:40:25;11.57;;;6.40;;
53907;SDS011;40469;47.998;7.794;2022-11-12T08:43:04;13.13;;;6.53;;
53907;SDS011;40469;47.998;7.794;2022-11-12T08:45:32;12.63;;;6.95;;
53907;SDS011;40469;47.998;7.794;2022-11-12T08:48:00;10.15;;;5.40;;
53907;SDS011;40469;47.998;7.794;2022-11-12T08:50:27;8.35;;;5.00;;
53907;SDS011;40469;47.998;7.794;2022-11-12T08:52:52;7.78;;;4.22;;
53907;SDS011;40469;47.998;7.794;2022-11-12T08:55:18;8.52;;;4.68;;
53907;SDS011;40469;47.998;7.794;2022-11-12T08:57:43;8.73;;;5.07;;
53907;SDS011;40469;47.998;7.794;2022-11-12T09:00:12;9.85;;;5.05;;
53907;SDS011;40469;47.998;7.794;2022-11-12T09:02:38;10.18;;;5.45;;
53907;SDS011;40469;47.998;7.794;2022-11-12T09:05:03;9.32;;;5.30;;
53907;SDS011;40469;47.998;7.794;2022-11-12T09:07:30;9.55;;;5.13;;
53907;SDS011;40469;47.998;7.794;2022-11-12T09:09:55;10.05;;;5.43;;
53907;SDS011;40469;47.998;7.794;2022-11-12T09:12:22;9.45;;;5.15;;
53907;SDS011;40469;47.998;7.794;2022-11-12T09:14:47;7.90;;;5.22;;
53907;SDS011;40469;47.998;7.794;2022-11-12T09:17:13;10.10;;;5.20;;
53907;SDS011;40469;47.998;7.794;2022-11-12T09:19:38;11.35;;;6.32;;
53907;SDS011;40469;47.998;7.794;2022-11-12T09:22:04;12.35;;;6.30;;
53907;SDS011;40469;47.998;7.794;2022-11-12T09:24:29;15.20;;;6.00;;
53907;SDS011;40469;47.998;7.794;2022-11-12T09:26:58;13.15;;;7.20;;
53907;SDS011;40469;47.998;7.794;2022-11-12T09:29:43;14.27;;;7.35;;
53907;SDS011;40469;47.998;7.794;2022-11-12T09:32:09;15.63;;;7.70;;
53907;SDS011;40469;47.998;7.794;2022-11-12T09:34:34;15.20;;;7.65;;
53907;SDS011;40469;47.998;7.794;2022-11-12T09:36:59;17.60;;;8.70;;
53907;SDS011;40469;47.998;7.794;2022-11-12T09:39:25;15.77;;;8.25;;
53907;SDS011;40469;47.998;7.794;2022-11-12T09:41:50;14.27;;;7.80;;
53907;SDS011;40469;47.998;7.794;2022-11-12T09:44:17;12.73;;;7.55;;
53907;SDS011;40469;47.998;7.794;2022-11-12T09:46:51;17.27;;;8.50;;
53907;SDS011;40469;47.998;7.794;2022-11-12T09:51:52;20.38;;;9.23;;
53907;SDS011;40469;47.998;7.794;2022-11-12T09:54:25;17.45;;;8.90;;
53907;SDS011;40469;47.998;7.794;2022-11-12T09:56:54;20.73;;;9.02;;
53907;SDS011;40469;47.998;7.794;2022-11-12T09:59:19;22.08;;;9.23;;
53907;SDS011;40469;47.998;7.794;2022-11-12T10:02:15;24.35;;;10.25;;
53907;SDS011;40469;47.998;7.794;2022-11-12T10:12:30;24.38;;;9.65;;
53907;SDS011;40469;47.998;7.794;2022-11-12T10:18:00;24.10;;;9.85;;
53907;SDS011;40469;47.998;7.794;2022-11-12T10:26:15;22.35;;;10.48;;
53907;SDS011;40469;47.998;7.794;2022-11-12T10:28:44;21.05;;;9.15;;
53907;SDS011;40469;47.998;7.794;2022-11-12T10:31:15;22.85;;;10.18;;
53907;SDS011;40469;47.998;7.794;2022-11-12T10:33:42;19.92;;;9.98;;
53907;SDS011;40469;47.998;7.794;2022-11-12T10:36:14;17.70;;;9.38;;
53907;SDS011;40469;47.998;7.794;2022-11-12T10:38:46;20.65;;;9.13;;
53907;SDS011;40469;47.998;7.794;2022-11-12T10:41:19;20.63;;;9.40;;
53907;SDS011;40469;47.998;7.794;2022-11-12T10:44:05;19.98;;;9.27;;
53907;SDS011;40469;47.998;7.794;2022-11-12T10:46:37;19.40;;;8.98;;
53907;SDS011;40469;47.998;7.794;2022-11-12T10:49:21;18.10;;;9.20;;
53907;SDS011;40469;47.998;7.794;2022-11-12T10:51:55;18.23;;;8.60;;
53907;SDS011;40469;47.998;7.794;2022-11-12T10:54:29;21.42;;;10.07;;
53907;SDS011;40469;47.998;7.794;2022-11-12T11:05:55;18.15;;;9.57;;
53907;SDS011;40469;47.998;7.794;2022-11-12T11:08:33;23.27;;;10.90;;
53907;SDS011;40469;47.998;7.794;2022-11-12T11:13:40;21.58;;;9.55;;
53907;SDS011;40469;47.998;7.794;2022-11-12T11:16:07;20.25;;;9.80;;
53907;SDS011;40469;47.998;7.794;2022-11-12T11:18:36;22.75;;;10.10;;
53907;SDS011;40469;47.998;7.794;2022-11-12T11:29:05;21.00;;;10.35;;
53907;SDS011;40469;47.998;7.794;2022-11-12T11:44:50;19.65;;;10.27;;
53907;SDS011;40469;47.998;7.794;2022-11-12T11:47:31;17.85;;;9.52;;
53907;SDS011;40469;47.998;7.794;2022-11-12T11:52:44;21.38;;;10.25;;
53907;SDS011;40469;47.998;7.794;2022-11-12T11:55:37;22.23;;;10.35;;
53907;SDS011;40469;47.998;7.794;2022-11-12T12:06:56;21.95;;;12.07;;
53907;SDS011;40469;47.998;7.794;2022-11-12T12:15:22;24.48;;;11.70;;
53907;SDS011;40469;47.998;7.794;2022-11-12T12:21:08;23.13;;;11.73;;
53907;SDS011;40469;47.998;7.794;2022-11-12T12:28:59;24.40;;;12.38;;
53907;SDS011;40469;47.998;7.794;2022-11-12T12:31:31;30.83;;;13.95;;
53907;SDS011;40469;47.998;7.794;2022-11-12T12:34:03;24.48;;;12.52;;
53907;SDS011;40469;47.998;7.794;2022-11-12T12:36:37;29.37;;;13.90;;
53907;SDS011;40469;47.998;7.794;2022-11-12T12:39:17;27.17;;;12.95;;
53907;SDS011;40469;47.998;7.794;2022-11-12T12:42:04;28.20;;;14.07;;
53907;SDS011;40469;47.998;7.794;2022-11-12T12:44:40;29.27;;;14.02;;
53907;SDS011;40469;47.998;7.794;2022-11-12T12:47:27;30.00;;;13.77;;
53907;SDS011;40469;47.998;7.794;2022-11-12T12:49:54;29.90;;;14.07;;
53907;SDS011;40469;47.998;7.794;2022-11-12T12:52:22;30.98;;;14.18;;
53907;SDS011;40469;47.998;7.794;2022-11-12T13:02:50;28.73;;;14.32;;
53907;SDS011;40469;47.998;7.794;2022-11-12T13:07:57;34.72;;;15.13;;
53907;SDS011;40469;47.998;7.794;2022-11-12T13:15:42;30.25;;;15.35;;
53907;SDS011;40469;47.998;7.794;2022-11-12T13:18:09;36.83;;;15.65;;
53907;SDS011;40469;47.998;7.794;2022-11-12T13:20:36;33.40;;;14.82;;
53907;SDS011;40469;47.998;7.794;2022-11-12T13:23:04;32.50;;;15.23;;
53907;SDS011;40469;47.998;7.794;2022-11-12T13:25:34;27.08;;;12.85;;
53907;SDS011;40469;47.998;7.794;2022-11-12T13:28:09;31.48;;;14.90;;
53907;SDS011;40469;47.998;7.794;2022-11-12T13:33:23;29.98;;;14.07;;
53907;SDS011;40469;47.998;7.794;2022-11-12T13:36:03;29.95;;;14.75;;
53907;SDS011;40469;47.998;7.794;2022-11-12T13:38:49;33.20;;;14.90;;
53907;SDS011;40469;47.998;7.794;2022-11-12T13:41:16;30.25;;;15.00;;
53907;SDS011;40469;47.998;7.794;2022-11-12T13:44:05;32.95;;;14.75;;
53907;SDS011;40469;47.998;7.794;2022-11-12T13:46:33;32.22;;;15.68;;
53907;SDS011;40469;47.998;7.794;2022-11-12T13:48:59;26.45;;;12.43;;
53907;SDS011;40469;47.998;7.794;2022-11-12T13:51:41;28.42;;;13.13;;
53907;SDS011;40469;47.998;7.794;2022-11-12T13:54:29;30.30;;;14.02;;
53907;SDS011;40469;47.998;7.794;2022-11-12T13:57:10;31.70;;;15.02;;
53907;SDS011;40469;47.998;7.794;2022-11-12T13:59:48;34.72;;;15.80;;
53907;SDS011;40469;47.998;7.794;2022-11-12T14:02:31;33.35;;;15.80;;
53907;SDS011;40469;47.998;7.794;2022-11-12T14:04:57;31.83;;;15.10;;
53907;SDS011;40469;47.998;7.794;2022-11-12T14:12:44;34.80;;;15.85;;
53907;SDS011;40469;47.998;7.794;2022-11-12T14:20:33;33.00;;;15.52;;
53907;SDS011;40469;47.998;7.794;2022-11-12T14:23:10;35.95;;;16.70;;
53907;SDS011;40469;47.998;7.794;2022-11-12T14:25:51;36.38;;;16.00;;
53907;SDS011;40469;47.998;7.794;2022-11-12T14:28:36;35.20;;;16.38;;
53907;SDS011;40469;47.998;7.794;2022-11-12T14:31:09;39.40;;;17.45;;
53907;SDS011;40469;47.998;7.794;2022-11-12T14:33:38;36.70;;;17.57;;
53907;SDS011;40469;47.998;7.794;2022-11-12T14:36:10;37.60;;;16.35;;
53907;SDS011;40469;47.998;7.794;2022-11-12T14:38:42;39.78;;;17.75;;
53907;SDS011;40469;47.998;7.794;2022-11-12T14:43:55;40.38;;;17.48;;
53907;SDS011;40469;47.998;7.794;2022-11-12T14:46:26;42.20;;;19.42;;
53907;SDS011;40469;47.998;7.794;2022-11-12T14:49:00;39.33;;;17.52;;
53907;SDS011;40469;47.998;7.794;2022-11-12T14:51:39;42.17;;;18.15;;
53907;SDS011;40469;47.998;7.794;2022-11-12T14:54:09;43.13;;;17.80;;
53907;SDS011;40469;47.998;7.794;2022-11-12T14:56:44;43.50;;;18.08;;
53907;SDS011;40469;47.998;7.794;2022-11-12T14:59:12;42.15;;;17.70;;
53907;SDS011;40469;47.998;7.794;2022-11-12T15:01:40;44.65;;;18.10;;
53907;SDS011;40469;47.998;7.794;2022-11-12T15:04:34;45.40;;;19.15;;
53907;SDS011;40469;47.998;7.794;2022-11-12T15:07:25;44.77;;;18.73;;
53907;SDS011;40469;47.998;7.794;2022-11-12T15:09:53;42.95;;;18.50;;
53907;SDS011;40469;47.998;7.794;2022-11-12T15:12:19;43.35;;;18.15;;
53907;SDS011;40469;47.998;7.794;2022-11-12T15:14:47;50.35;;;17.58;;
53907;SDS011;40469;47.998;7.794;2022-11-12T15:17:26;40.40;;;16.30;;
53907;SDS011;40469;47.998;7.794;2022-11-12T15:19:59;40.05;;;17.42;;
53907;SDS011;40469;47.998;7.794;2022-11-12T15:22:26;47.80;;;19.65;;
53907;SDS011;40469;47.998;7.794;2022-11-12T15:24:52;43.00;;;17.98;;
53907;SDS011;40469;47.998;7.794;2022-11-12T15:27:33;47.28;;;20.38;;
53907;SDS011;40469;47.998;7.794;2022-11-12T15:30:34;41.22;;;18.33;;
53907;SDS011;40469;47.998;7.794;2022-11-12T15:33:05;41.60;;;17.58;;
53907;SDS011;40469;47.998;7.794;2022-11-12T15:35:33;44.38;;;19.02;;
53907;SDS011;40469;47.998;7.794;2022-11-12T15:38:02;40.42;;;17.23;;
53907;SDS011;40469;47.998;7.794;2022-11-12T15:40:36;42.03;;;17.98;;
53907;SDS011;40469;47.998;7.794;2022-11-12T15:43:14;39.20;;;17.23;;
53907;SDS011;40469;47.998;7.794;2022-11-12T15:45:42;43.08;;;18.23;;
53907;SDS011;40469;47.998;7.794;2022-11-12T15:48:11;42.63;;;16.65;;
53907;SDS011;40469;47.998;7.794;2022-11-12T15:50:36;42.88;;;17.83;;
53907;SDS011;40469;47.998;7.794;2022-11-12T15:53:03;40.92;;;17.48;;
53907;SDS011;40469;47.998;7.794;2022-11-12T15:55:29;37.63;;;17.00;;
53907;SDS011;40469;47.998;7.794;2022-11-12T15:57:55;38.42;;;17.05;;
53907;SDS011;40469;47.998;7.794;2022-11-12T16:00:22;39.20;;;17.58;;
53907;SDS011;40469;47.998;7.794;2022-11-12T16:03:34;43.92;;;18.27;;
53907;SDS011;40469;47.998;7.794;2022-11-12T16:05:44;35.70;;;14.52;;
53907;SDS011;40469;47.998;7.794;2022-11-12T16:08:10;36.85;;;15.32;;
53907;SDS011;40469;47.998;7.794;2022-11-12T16:10:39;38.45;;;17.13;;
53907;SDS011;40469;47.998;7.794;2022-11-12T16:13:10;38.88;;;15.70;;
53907;SDS011;40469;47.998;7.794;2022-11-12T16:15:44;35.92;;;16.45;;
53907;SDS011;40469;47.998;7.794;2022-11-12T16:18:10;41.40;;;15.52;;
53907;SDS011;40469;47.998;7.794;2022-11-12T16:20:36;36.97;;;16.85;;
53907;SDS011;40469;47.998;7.794;2022-11-12T16:23:02;36.60;;;15.52;;
53907;SDS011;40469;47.998;7.794;2022-11-12T16:25:28;36.35;;;14.80;;
53907;SDS011;40469;47.998;7.794;2022-11-12T16:27:56;35.22;;;15.57;;
53907;SDS011;40469;47.998;7.794;2022-11-12T16:30:23;35.08;;;15.27;;
53907;SDS011;40469;47.998;7.794;2022-11-12T16:32:55;35.75;;;14.65;;